Aérodrome :
LOGIN :

S'inscrire | Disclaimer

   EN    FR    IT 

 










Légende :    VFR   VFR Marginal   IFR   IFR Intensif   IFR Très Intensif
Visi : 
Plafond : 
>= 8 km
>= 3000ft
5 à 8 km
1000 à 3000 ft
1500m à 5 km
500 à 1000 ft
800 à 1500m
200 à 500 ft
< 800m
< 200 ft
Symboles :   Orages  Brouillard  Fortes neiges  Fortes précipitations  Vent > 20 kt
SIGMETs :   Divers  Orages  Givrage  Turbulence  Onde Orograph.  Cendres Volcan.







- Altitude de l'aérodrome : 458 ft
- Voir les cartes d'approche


LFSI - St-Dizier

DERNIER METAR :
  • 121800Z AUTO 19007KT 9999 FEW033 SCT047 OVC060 04/01 Q1016

METARs EXPIRÉS :
  • 121730Z AUTO 19007KT 9999 FEW027 SCT033 OVC056 04/01 Q1015
  • 121700Z AUTO 21006KT 9999 BKN033 OVC058 04/01 Q1015
  • 121630Z AUTO 20004KT 9999 BKN034 BKN045 OVC072 04/01 Q1015
  • 121600Z AUTO 22006KT 9999 FEW013 BKN035 BKN046 04/01 Q1014
  • 121530Z AUTO 23009KT 9999 -RA SCT022 BKN042 BKN054 04/01 Q1014

TAF TAF LFSI
Valide du 12 à 15h jusqu'au 13 à 15h UTC


121400Z 1215/1315 23012KT 9999 BKN040
BECMG 1306/1308 2000 RADZ BKN010 OVC020
BECMG 1313/1315 8000 NSW BKN025
Pas de NOTAMs connus pour ce terrain.



MET'MAP, la Météo Aéronautique d'un coup d'oeil ! - Copyright ORBIFLY Décembre 2007 - Disclaimer

ORBIFLY MET'MAP TEAM :

Programmation & Développement : Alexandra Zaïnal
Conception & Développement : Baudouin d'Aumeries
Co-Programmation & Développement : Marc-Olivier Méhu
Soutien technique & logistique : Manuel Goepfert

Contact : metmap@orbifly.com




SOURCES & CREDITS :

   NOAA